Terminal Aerodrome Forecast
Issued by NWS Shreveport, LA

Home | Current Version | Previous Version | Text Only | Print | Product List | Glossary On
Versions: 1 2 3 4 5 6 7 8 9 10 11 12
337
FTUS44 KSHV 071120
TAFSHV
TAF
KSHV 071120Z 0712/0812 00000KT P6SM SKC
     FM071500 22008KT P6SM FEW250
     FM080000 25005KT P6SM FEW250
     FM080700 31011KT P6SM SKC=

USA.gov is the U.S. government's official web portal to all federal, state and local government web resources and services.